Mountain Home, Wyoming
Current Conditions -  °F | °C
As of 11:53 AM on Saturday 20 Dec 2014 (Local Time) from KLAR Reporting Station
Overcast Overcast  
Wind Chill: 24°   Ceiling: 4900
Heat Index: 34°   Visibility: 10mi
Dew Point: 22°   Wind: 15mph
Humidity: 61%   Direction: 200°SSW
Pressure: 29.99"   Gusts: NA
Location:  41.2601°N, 105.565°W
Report Text: KLAR 201853Z AUTO 20013KT 10SM OVC049 01/M06 A2999 RMK AO2 SLP162 T00111056
Loading
Personal Weather Stations






























Interactive Weather Map New forecast layout! Learn more

10-Day Weather Forecast

Advertisements
Track Severe Weather on mobile